Arvonia, Virginia
Current Conditions -  °F | °C
As of 1:15 AM on Monday 26 Jan 2015 (Local Time) from KFVX Reporting Station
Light Rain Light Rain  
Wind Chill: 44°   Ceiling: 5000
Heat Index: 46°   Visibility: 10mi
Dew Point: 35°   Wind: 5mph
Humidity: 66%   Direction: 160°SSE
Pressure: 29.74"   Gusts: NA
Location:  37.68°N, 78.34°W
Report Text: KFVX 260615Z AUTO 16004KT 10SM -RA BKN050 OVC070 08/02 A2974 RMK AO2 T00770016
Loading
Personal Weather Stations






























Interactive Weather Map New forecast layout! Learn more

10-Day Weather Forecast

Advertisements
Track Severe Weather on mobile